sensor_id;sensor_type;location;lat;lon;timestamp;P1;durP1;ratioP1;P2;durP2;ratioP2
1991;SDS011;997;48.448;8.924;2023-01-28T13:56:22;11.90;;;9.93;;
1991;SDS011;997;48.448;8.924;2023-01-28T16:02:41;9.17;;;8.07;;
1991;SDS011;997;48.448;8.924;2023-01-28T16:05:30;10.73;;;8.80;;
1991;SDS011;997;48.448;8.924;2023-01-28T16:08:01;8.43;;;7.23;;
1991;SDS011;997;48.448;8.924;2023-01-28T16:10:35;8.40;;;6.93;;
1991;SDS011;997;48.448;8.924;2023-01-28T16:13:21;7.50;;;6.80;;
1991;SDS011;997;48.448;8.924;2023-01-28T16:15:50;7.47;;;6.77;;
1991;SDS011;997;48.448;8.924;2023-01-28T16:18:59;7.33;;;6.67;;
1991;SDS011;997;48.448;8.924;2023-01-28T16:21:08;8.17;;;7.37;;
1991;SDS011;997;48.448;8.924;2023-01-28T16:23:36;9.80;;;6.93;;
1991;SDS011;997;48.448;8.924;2023-01-28T16:26:04;8.80;;;7.10;;
1991;SDS011;997;48.448;8.924;2023-01-28T16:28:50;7.93;;;7.07;;
1991;SDS011;997;48.448;8.924;2023-01-28T16:31:16;8.47;;;7.60;;
1991;SDS011;997;48.448;8.924;2023-01-28T16:33:42;9.27;;;6.93;;
1991;SDS011;997;48.448;8.924;2023-01-28T16:36:11;11.60;;;9.63;;
1991;SDS011;997;48.448;8.924;2023-01-28T16:38:39;10.07;;;8.90;;
1991;SDS011;997;48.448;8.924;2023-01-28T16:41:10;8.87;;;8.03;;
1991;SDS011;997;48.448;8.924;2023-01-28T16:43:37;11.47;;;8.80;;
1991;SDS011;997;48.448;8.924;2023-01-28T16:46:03;9.93;;;8.87;;
1991;SDS011;997;48.448;8.924;2023-01-28T16:48:29;10.47;;;8.60;;
1991;SDS011;997;48.448;8.924;2023-01-28T16:50:54;11.10;;;8.97;;
1991;SDS011;997;48.448;8.924;2023-01-28T16:53:22;9.43;;;8.23;;
1991;SDS011;997;48.448;8.924;2023-01-28T16:55:52;8.63;;;7.73;;
1991;SDS011;997;48.448;8.924;2023-01-28T16:58:21;9.53;;;8.60;;
1991;SDS011;997;48.448;8.924;2023-01-28T17:00:49;9.33;;;8.33;;
1991;SDS011;997;48.448;8.924;2023-01-28T17:03:15;14.00;;;11.60;;
1991;SDS011;997;48.448;8.924;2023-01-28T17:05:40;10.40;;;9.40;;
1991;SDS011;997;48.448;8.924;2023-01-28T17:08:06;9.93;;;8.33;;
1991;SDS011;997;48.448;8.924;2023-01-28T17:10:32;9.90;;;8.90;;
1991;SDS011;997;48.448;8.924;2023-01-28T17:12:58;13.10;;;10.37;;
1991;SDS011;997;48.448;8.924;2023-01-28T17:15:24;13.80;;;11.73;;
1991;SDS011;997;48.448;8.924;2023-01-28T17:17:50;17.00;;;13.00;;
1991;SDS011;997;48.448;8.924;2023-01-28T17:20:17;18.80;;;16.10;;
1991;SDS011;997;48.448;8.924;2023-01-28T17:22:43;21.27;;;16.30;;
1991;SDS011;997;48.448;8.924;2023-01-28T17:25:10;17.53;;;14.80;;
1991;SDS011;997;48.448;8.924;2023-01-28T17:27:35;13.50;;;11.03;;
1991;SDS011;997;48.448;8.924;2023-01-28T17:30:01;13.20;;;10.50;;
1991;SDS011;997;48.448;8.924;2023-01-28T17:32:28;12.13;;;10.93;;
1991;SDS011;997;48.448;8.924;2023-01-28T17:34:53;11.70;;;10.53;;
1991;SDS011;997;48.448;8.924;2023-01-28T17:37:19;10.87;;;9.80;;
1991;SDS011;997;48.448;8.924;2023-01-28T17:39:45;10.70;;;9.70;;
1991;SDS011;997;48.448;8.924;2023-01-28T17:42:10;10.90;;;9.93;;
1991;SDS011;997;48.448;8.924;2023-01-28T17:44:36;11.67;;;10.57;;
1991;SDS011;997;48.448;8.924;2023-01-28T17:47:01;10.90;;;9.87;;
1991;SDS011;997;48.448;8.924;2023-01-28T17:49:27;10.63;;;9.53;;
1991;SDS011;997;48.448;8.924;2023-01-28T17:51:53;11.47;;;10.13;;
1991;SDS011;997;48.448;8.924;2023-01-28T17:54:19;15.60;;;14.33;;
1991;SDS011;997;48.448;8.924;2023-01-28T17:56:44;15.50;;;12.00;;
1991;SDS011;997;48.448;8.924;2023-01-28T17:59:10;14.70;;;11.17;;
1991;SDS011;997;48.448;8.924;2023-01-28T18:01:38;13.13;;;11.83;;
1991;SDS011;997;48.448;8.924;2023-01-28T18:04:03;12.37;;;10.53;;
1991;SDS011;997;48.448;8.924;2023-01-28T18:06:30;10.60;;;9.57;;
1991;SDS011;997;48.448;8.924;2023-01-28T18:08:58;10.20;;;9.20;;
1991;SDS011;997;48.448;8.924;2023-01-28T18:11:24;11.50;;;8.47;;
1991;SDS011;997;48.448;8.924;2023-01-28T18:13:50;10.83;;;9.83;;
1991;SDS011;997;48.448;8.924;2023-01-28T18:16:17;10.50;;;9.50;;
1991;SDS011;997;48.448;8.924;2023-01-28T18:18:44;8.50;;;7.70;;
1991;SDS011;997;48.448;8.924;2023-01-28T18:21:19;9.27;;;8.23;;
1991;SDS011;997;48.448;8.924;2023-01-28T18:24:00;9.67;;;8.70;;
1991;SDS011;997;48.448;8.924;2023-01-28T18:26:27;12.53;;;11.33;;
1991;SDS011;997;48.448;8.924;2023-01-28T18:28:52;11.47;;;9.97;;
1991;SDS011;997;48.448;8.924;2023-01-28T18:31:18;11.73;;;10.40;;
1991;SDS011;997;48.448;8.924;2023-01-28T18:33:44;11.37;;;9.77;;
1991;SDS011;997;48.448;8.924;2023-01-28T18:36:11;10.97;;;9.87;;
1991;SDS011;997;48.448;8.924;2023-01-28T18:38:37;10.30;;;9.30;;
1991;SDS011;997;48.448;8.924;2023-01-28T18:41:03;11.70;;;10.50;;
1991;SDS011;997;48.448;8.924;2023-01-28T18:43:29;13.03;;;11.93;;
1991;SDS011;997;48.448;8.924;2023-01-28T18:45:56;12.47;;;11.37;;
1991;SDS011;997;48.448;8.924;2023-01-28T18:48:24;9.93;;;8.80;;
1991;SDS011;997;48.448;8.924;2023-01-28T18:50:53;13.73;;;10.70;;
1991;SDS011;997;48.448;8.924;2023-01-28T18:53:23;12.73;;;11.47;;
1991;SDS011;997;48.448;8.924;2023-01-28T18:55:50;10.43;;;9.43;;
1991;SDS011;997;48.448;8.924;2023-01-28T18:58:16;11.40;;;10.20;;
1991;SDS011;997;48.448;8.924;2023-01-28T19:00:42;10.57;;;9.30;;
1991;SDS011;997;48.448;8.924;2023-01-28T19:03:08;10.67;;;9.67;;
1991;SDS011;997;48.448;8.924;2023-01-28T19:05:34;11.57;;;10.40;;
1991;SDS011;997;48.448;8.924;2023-01-28T19:08:01;18.03;;;11.40;;
1991;SDS011;997;48.448;8.924;2023-01-28T19:10:29;12.20;;;11.00;;
1991;SDS011;997;48.448;8.924;2023-01-28T19:12:54;15.97;;;13.67;;
1991;SDS011;997;48.448;8.924;2023-01-28T19:15:20;15.27;;;12.43;;
1991;SDS011;997;48.448;8.924;2023-01-28T19:17:46;14.90;;;13.27;;
1991;SDS011;997;48.448;8.924;2023-01-28T19:20:12;11.50;;;10.40;;
1991;SDS011;997;48.448;8.924;2023-01-28T19:22:38;12.57;;;11.27;;
1991;SDS011;997;48.448;8.924;2023-01-28T19:25:04;10.43;;;9.43;;
1991;SDS011;997;48.448;8.924;2023-01-28T19:27:30;10.73;;;9.63;;
1991;SDS011;997;48.448;8.924;2023-01-28T19:29:56;13.00;;;10.67;;
1991;SDS011;997;48.448;8.924;2023-01-28T19:32:21;11.10;;;10.00;;
1991;SDS011;997;48.448;8.924;2023-01-28T19:34:47;11.07;;;9.97;;
1991;SDS011;997;48.448;8.924;2023-01-28T19:37:13;13.00;;;11.77;;
1991;SDS011;997;48.448;8.924;2023-01-28T19:39:39;10.90;;;9.90;;
1991;SDS011;997;48.448;8.924;2023-01-28T19:42:05;10.47;;;9.57;;
1991;SDS011;997;48.448;8.924;2023-01-28T19:44:31;10.43;;;9.43;;
1991;SDS011;997;48.448;8.924;2023-01-28T19:46:58;11.30;;;10.20;;
1991;SDS011;997;48.448;8.924;2023-01-28T19:49:26;10.07;;;9.10;;
1991;SDS011;997;48.448;8.924;2023-01-28T19:51:52;14.13;;;11.20;;
1991;SDS011;997;48.448;8.924;2023-01-28T19:54:17;11.37;;;10.20;;
1991;SDS011;997;48.448;8.924;2023-01-28T19:56:43;11.63;;;10.20;;
1991;SDS011;997;48.448;8.924;2023-01-28T19:59:09;9.20;;;8.40;;
1991;SDS011;997;48.448;8.924;2023-01-28T20:01:35;9.17;;;8.27;;
1991;SDS011;997;48.448;8.924;2023-01-28T20:04:01;12.47;;;10.23;;
1991;SDS011;997;48.448;8.924;2023-01-28T20:06:28;11.13;;;10.13;;
1991;SDS011;997;48.448;8.924;2023-01-28T20:08:58;13.10;;;11.10;;
1991;SDS011;997;48.448;8.924;2023-01-28T20:11:25;12.07;;;10.87;;
1991;SDS011;997;48.448;8.924;2023-01-28T20:13:51;13.00;;;11.70;;
1991;SDS011;997;48.448;8.924;2023-01-28T20:16:19;9.90;;;9.00;;
1991;SDS011;997;48.448;8.924;2023-01-28T20:18:51;12.03;;;10.83;;
1991;SDS011;997;48.448;8.924;2023-01-28T20:21:18;11.27;;;10.27;;
1991;SDS011;997;48.448;8.924;2023-01-28T20:23:45;11.13;;;9.73;;
1991;SDS011;997;48.448;8.924;2023-01-28T20:26:15;12.17;;;11.07;;
1991;SDS011;997;48.448;8.924;2023-01-28T20:28:42;12.80;;;11.43;;
1991;SDS011;997;48.448;8.924;2023-01-28T20:31:08;9.50;;;8.50;;
1991;SDS011;997;48.448;8.924;2023-01-28T20:33:35;11.23;;;10.13;;
1991;SDS011;997;48.448;8.924;2023-01-28T20:36:01;11.30;;;9.80;;
1991;SDS011;997;48.448;8.924;2023-01-28T20:38:29;13.63;;;12.33;;
1991;SDS011;997;48.448;8.924;2023-01-28T20:40:55;14.00;;;12.63;;
1991;SDS011;997;48.448;8.924;2023-01-28T20:43:20;12.10;;;9.67;;
1991;SDS011;997;48.448;8.924;2023-01-28T20:45:46;9.63;;;8.77;;
1991;SDS011;997;48.448;8.924;2023-01-28T20:48:12;9.50;;;8.60;;
1991;SDS011;997;48.448;8.924;2023-01-28T20:50:37;11.60;;;10.23;;
1991;SDS011;997;48.448;8.924;2023-01-28T20:53:03;18.57;;;11.23;;
1991;SDS011;997;48.448;8.924;2023-01-28T20:55:29;10.53;;;9.53;;
1991;SDS011;997;48.448;8.924;2023-01-28T20:57:56;8.47;;;7.67;;
1991;SDS011;997;48.448;8.924;2023-01-28T21:00:22;12.30;;;9.80;;
1991;SDS011;997;48.448;8.924;2023-01-28T21:02:47;9.83;;;8.90;;
1991;SDS011;997;48.448;8.924;2023-01-28T21:05:13;10.20;;;9.23;;
1991;SDS011;997;48.448;8.924;2023-01-28T21:07:39;10.27;;;8.97;;
1991;SDS011;997;48.448;8.924;2023-01-28T21:10:05;10.50;;;9.40;;
1991;SDS011;997;48.448;8.924;2023-01-28T21:12:31;10.07;;;9.10;;
1991;SDS011;997;48.448;8.924;2023-01-28T21:14:57;10.23;;;8.97;;
1991;SDS011;997;48.448;8.924;2023-01-28T21:17:23;9.33;;;8.33;;
1991;SDS011;997;48.448;8.924;2023-01-28T21:19:49;9.60;;;8.53;;
1991;SDS011;997;48.448;8.924;2023-01-28T21:22:15;7.80;;;7.10;;
1991;SDS011;997;48.448;8.924;2023-01-28T21:24:40;10.43;;;9.43;;
1991;SDS011;997;48.448;8.924;2023-01-28T21:27:08;9.43;;;8.47;;
1991;SDS011;997;48.448;8.924;2023-01-28T21:29:34;9.57;;;8.60;;
1991;SDS011;997;48.448;8.924;2023-01-28T21:32:00;10.80;;;9.00;;
1991;SDS011;997;48.448;8.924;2023-01-28T21:34:26;10.23;;;9.23;;
1991;SDS011;997;48.448;8.924;2023-01-28T21:36:52;9.90;;;8.90;;
1991;SDS011;997;48.448;8.924;2023-01-28T21:39:18;12.17;;;10.97;;
1991;SDS011;997;48.448;8.924;2023-01-28T21:41:43;11.83;;;10.63;;
1991;SDS011;997;48.448;8.924;2023-01-28T21:44:09;30.70;;;17.63;;
1991;SDS011;997;48.448;8.924;2023-01-28T21:46:36;23.20;;;15.93;;
1991;SDS011;997;48.448;8.924;2023-01-28T21:49:02;20.13;;;14.60;;
1991;SDS011;997;48.448;8.924;2023-01-28T21:51:29;36.37;;;23.57;;
1991;SDS011;997;48.448;8.924;2023-01-28T21:56:40;30.20;;;21.20;;
1991;SDS011;997;48.448;8.924;2023-01-28T21:59:08;11.70;;;10.60;;
1991;SDS011;997;48.448;8.924;2023-01-28T22:01:52;16.30;;;13.50;;
1991;SDS011;997;48.448;8.924;2023-01-28T22:04:38;12.67;;;10.80;;
1991;SDS011;997;48.448;8.924;2023-01-28T22:07:10;12.53;;;11.10;;
1991;SDS011;997;48.448;8.924;2023-01-28T22:09:37;13.43;;;11.97;;
1991;SDS011;997;48.448;8.924;2023-01-28T22:12:04;11.57;;;10.40;;
1991;SDS011;997;48.448;8.924;2023-01-28T22:19:42;16.93;;;12.67;;
